Time;durP1;ratioP1;P1;durP2;ratioP2;P2;SDS_P1;SDS_P2;PMS_P1;PMS_P2;Temp;Humidity;BMP_temperature;BMP_pressure;BME280_temperature;BME280_humidity;BME280_pressure;Samples;Min_cycle;Max_cycle;Signal;HPM_P1;HPM_P2
2023/02/28 00:00:35;;;;;;;7.53;2.53;;;;;;;-3.60;100.00;96824.22;4991399;28;20475;-82
2023/02/28 00:03:03;;;;;;;8.07;3.03;;;;;;;-3.64;100.00;96827.81;5045487;28;20613;-81
2023/02/28 00:05:29;;;;;;;8.63;2.30;;;;;;;-3.61;100.00;96825.13;5029648;28;20479;-83
2023/02/28 00:07:55;;;;;;;6.30;2.50;;;;;;;-3.59;100.00;96819.91;5008256;28;21684;-82
2023/02/28 00:10:26;;;;;;;8.23;3.10;;;;;;;-3.59;100.00;96825.91;5029647;28;20060;-83
2023/02/28 00:12:54;;;;;;;7.43;2.50;;;;;;;-3.64;100.00;96822.66;5009019;28;20459;-82
2023/02/28 00:15:22;;;;;;;5.73;2.77;;;;;;;-3.63;100.00;96819.19;5020075;28;21048;-82
2023/02/28 00:17:48;;;;;;;6.00;2.67;;;;;;;-3.58;100.00;96826.75;5027814;28;20486;-83
2023/02/28 00:20:15;;;;;;;5.17;2.63;;;;;;;-3.56;100.00;96822.38;5009532;28;20462;-82
2023/02/28 00:22:47;;;;;;;7.63;3.27;;;;;;;-3.60;100.00;96813.94;5043881;28;20489;-83
2023/02/28 00:25:15;;;;;;;6.20;2.73;;;;;;;-3.62;100.00;96820.03;5011696;28;20485;-83
2023/02/28 00:27:41;;;;;;;7.57;3.10;;;;;;;-3.52;100.00;96820.50;5029737;27;20463;-82
2023/02/28 00:30:10;;;;;;;6.87;2.97;;;;;;;-3.51;100.00;96819.66;4967623;28;20470;-82
2023/02/28 00:32:37;;;;;;;6.73;3.03;;;;;;;-3.51;100.00;96814.50;4991829;28;20442;-82
2023/02/28 00:35:04;;;;;;;4.67;2.43;;;;;;;-3.54;100.00;96817.19;4966871;28;20454;-82
2023/02/28 00:37:36;;;;;;;6.87;3.00;;;;;;;-3.48;100.00;96807.50;4958317;28;20036;-82
2023/02/28 00:40:06;;;;;;;7.73;3.40;;;;;;;-3.56;100.00;96815.50;4933388;28;23550;-82
2023/02/28 00:42:33;;;;;;;7.67;2.90;;;;;;;-3.50;100.00;96818.75;4941969;28;20473;-82
2023/02/28 00:44:58;;;;;;;7.73;3.10;;;;;;;-3.46;100.00;96810.00;4975403;27;20462;-82
2023/02/28 00:47:24;;;;;;;6.50;3.07;;;;;;;-3.50;100.00;96823.88;4980781;28;20466;-82
2023/02/28 00:49:50;;;;;;;6.00;3.00;;;;;;;-3.47;100.00;96821.19;4932990;28;21046;-82
2023/02/28 00:52:16;;;;;;;12.00;4.60;;;;;;;-3.48;100.00;96817.78;4928106;28;20037;-81
2023/02/28 00:54:41;;;;;;;8.30;3.57;;;;;;;-3.43;100.00;96813.28;4950803;28;22835;-82
2023/02/28 00:57:11;;;;;;;14.80;3.67;;;;;;;-3.47;100.00;96821.19;4922093;28;20098;-83
2023/02/28 00:59:37;;;;;;;7.53;3.20;;;;;;;-3.48;100.00;96811.81;4947151;28;20028;-81
2023/02/28 01:02:05;;;;;;;6.10;2.90;;;;;;;-3.43;100.00;96810.72;4933823;28;22466;-82
2023/02/28 01:04:33;;;;;;;7.97;3.30;;;;;;;-3.35;100.00;96815.59;4911429;28;20470;-82
2023/02/28 01:07:00;;;;;;;8.73;3.80;;;;;;;-3.41;100.00;96814.06;4906551;28;20614;-82
2023/02/28 01:09:27;;;;;;;8.00;3.30;;;;;;;-3.47;100.00;96809.16;4911196;28;20493;-82
2023/02/28 01:11:53;;;;;;;9.00;4.07;;;;;;;-3.43;100.00;96809.88;4904418;28;20553;-82
2023/02/28 01:14:19;;;;;;;7.77;3.20;;;;;;;-3.44;100.00;96808.22;4875347;28;20384;-82
2023/02/28 01:16:45;;;;;;;7.80;3.37;;;;;;;-3.41;100.00;96808.94;4903851;28;21983;-81
2023/02/28 01:19:11;;;;;;;7.77;3.07;;;;;;;-3.48;100.00;96811.81;4906369;28;20035;-83
2023/02/28 01:21:38;;;;;;;7.73;3.47;;;;;;;-3.41;100.00;96808.09;4930018;28;21036;-81
2023/02/28 01:24:05;;;;;;;9.93;3.40;;;;;;;-3.43;100.00;96804.75;4936337;28;20559;-82
2023/02/28 01:26:31;;;;;;;6.77;3.67;;;;;;;-3.45;100.00;96809.97;4939363;28;20458;-82
2023/02/28 01:28:57;;;;;;;8.57;3.50;;;;;;;-3.46;100.00;96815.97;4912044;28;20469;-82
2023/02/28 01:31:25;;;;;;;9.40;3.90;;;;;;;-3.51;100.00;96807.63;4943273;28;20463;-82
2023/02/28 01:33:51;;;;;;;8.20;3.40;;;;;;;-3.50;100.00;96814.44;4982386;28;20458;-81
2023/02/28 01:36:22;;;;;;;8.57;3.60;;;;;;;-3.50;100.00;96803.31;4957827;28;20494;-80
2023/02/28 01:38:48;;;;;;;9.70;3.90;;;;;;;-3.50;100.00;96803.31;4980319;28;20486;-82
2023/02/28 01:41:35;;;;;;;6.63;3.67;;;;;;;-3.51;100.00;96799.06;4982408;28;20501;-82
2023/02/28 01:44:40;;;;;;;6.67;3.63;;;;;;;-3.52;100.00;96794.81;4967685;28;20470;-82
2023/02/28 01:47:06;;;;;;;6.00;2.97;;;;;;;-3.50;100.00;96793.84;4968540;28;20477;-82
2023/02/28 01:49:32;;;;;;;7.07;3.60;;;;;;;-3.58;100.00;96803.63;4984980;28;20695;-82
2023/02/28 01:51:57;;;;;;;7.17;3.17;;;;;;;-3.58;100.00;96799.31;4979486;28;20025;-81
2023/02/28 01:54:28;;;;;;;8.00;3.80;;;;;;;-3.61;100.00;96802.00;4982121;28;20027;-81
2023/02/28 01:57:01;;;;;;;9.07;3.90;;;;;;;-3.61;100.00;96802.00;4967061;28;20498;-81
2023/02/28 01:59:44;;;;;;;6.65;3.53;;;;;;;-3.62;100.00;96804.59;4979958;28;20560;-79
2023/02/28 02:02:14;;;;;;;;;;;;;;;-3.64;100.00;96802.09;4965272;28;20033;-82
2023/02/28 02:04:57;;;;;;;9.07;3.70;;;;;;;-3.71;100.00;96795.53;4985119;28;19923;-82
2023/02/28 02:07:26;;;;;;;8.45;3.55;;;;;;;-3.74;100.00;96797.38;4960215;28;21037;-81
2023/02/28 02:10:16;;;;;;;6.40;3.40;;;;;;;-3.72;100.00;96783.59;4976348;27;20070;-83
2023/02/28 02:13:04;;;;;;;11.70;5.03;;;;;;;-3.78;100.00;96790.69;4962771;28;20459;-82
2023/02/28 02:16:00;;;;;;;7.50;3.77;;;;;;;-3.81;100.00;96786.50;4959106;28;20975;-82
2023/02/28 02:18:45;;;;;;;;;;;;;;;-3.85;100.00;96782.38;4936420;28;20462;-81
2023/02/28 02:21:28;;;;;;;7.03;3.57;;;;;;;-3.85;100.00;96787.50;4929287;28;20789;-82
2023/02/28 02:24:22;;;;;;;10.95;4.50;;;;;;;-3.88;100.00;96787.63;4925126;28;21304;-82
2023/02/28 02:27:06;;;;;;;9.43;4.00;;;;;;;-3.90;100.00;96790.25;4904707;28;20052;-81
2023/02/28 02:29:58;;;;;;;7.10;3.70;;;;;;;-3.94;100.00;96796.38;4922663;28;21115;-82
2023/02/28 02:32:58;;;;;;;9.23;4.10;;;;;;;-3.92;100.00;96797.19;4941017;28;20467;-82
2023/02/28 02:35:34;;;;;;;9.13;4.50;;;;;;;-3.95;100.00;96793.91;4949320;28;20454;-82
2023/02/28 02:38:18;;;;;;;8.33;4.57;;;;;;;-3.91;100.00;96796.28;4971760;28;20479;-82
2023/02/28 02:41:32;;;;;;;7.18;3.80;;;;;;;-3.96;100.00;96792.19;4975003;28;20544;-82
2023/02/28 02:44:19;;;;;;;19.90;4.85;;;;;;;-3.94;100.00;96791.25;4992980;28;20517;-82
2023/02/28 02:46:47;;;;;;;10.50;4.20;;;;;;;-3.97;100.00;96790.53;5039563;28;20490;-82
2023/02/28 02:49:23;;;;;;;9.37;4.77;;;;;;;-3.91;100.00;96792.88;4991980;28;20528;-82
2023/02/28 02:51:51;;;;;;;6.17;3.50;;;;;;;-3.95;100.00;96797.28;5046572;28;20493;-82
2023/02/28 02:54:23;;;;;;;9.30;4.57;;;;;;;-3.91;100.00;96790.31;4984477;28;20533;-82
2023/02/28 02:57:01;;;;;;;7.37;3.77;;;;;;;-3.86;100.00;96794.34;5023695;28;20482;-82
2023/02/28 02:59:30;;;;;;;7.53;4.53;;;;;;;-3.87;100.00;96792.69;5062759;28;20489;-82
2023/02/28 03:02:01;;;;;;;9.57;5.07;;;;;;;-3.86;100.00;96798.66;5062334;28;20456;-82
2023/02/28 03:04:33;;;;;;;10.47;5.20;;;;;;;-3.80;100.00;96795.88;5046149;28;20497;-82
2023/02/28 03:06:59;;;;;;;10.30;5.37;;;;;;;-3.82;100.00;96793.38;5043048;28;20472;-83
2023/02/28 03:09:26;;;;;;;11.17;5.13;;;;;;;-3.71;100.00;96785.25;5046105;28;21219;-82
2023/02/28 03:11:54;;;;;;;8.67;4.53;;;;;;;-3.76;100.00;96792.28;5052147;28;20024;-82
2023/02/28 03:14:29;;;;;;;11.03;5.83;;;;;;;-3.77;100.00;96782.91;5020576;28;20600;-82
2023/02/28 03:17:43;;;;;;;8.40;5.27;;;;;;;-3.75;100.00;96783.69;5009551;28;20467;-82
2023/02/28 03:20:53;;;;;;;8.73;4.57;;;;;;;-3.70;100.00;96786.91;4961846;28;20470;-82
2023/02/28 03:23:44;;;;;;;7.43;4.07;;;;;;;-3.75;100.00;96788.84;4958323;28;20123;-82
2023/02/28 03:26:18;;;;;;;13.93;4.27;;;;;;;-3.85;100.00;96787.50;4997242;28;20487;-82
2023/02/28 03:28:56;;;;;;;11.73;5.27;;;;;;;-3.72;100.00;96780.16;4986469;28;20506;-81
2023/02/28 03:31:34;;;;;;;8.03;4.00;;;;;;;-3.67;100.00;96783.41;4993977;28;20451;-81
2023/02/28 03:34:32;;;;;;;11.10;5.10;;;;;;;-3.61;100.00;96781.44;5025804;28;20525;-82
2023/02/28 03:37:10;;;;;;;8.83;4.67;;;;;;;-3.69;100.00;96787.75;4975531;28;20482;-82
2023/02/28 03:39:43;;;;;;;10.53;5.23;;;;;;;-3.70;100.00;96770.66;4986766;28;20518;-82
2023/02/28 03:42:19;;;;;;;9.90;5.50;;;;;;;-3.62;100.00;96792.63;5011601;28;20494;-83
2023/02/28 03:44:48;;;;;;;11.37;5.03;;;;;;;-3.71;100.00;96785.25;5019924;28;20171;-83
2023/02/28 03:47:22;;;;;;;8.70;4.77;;;;;;;-3.64;100.00;96786.69;5003716;28;20463;-83
2023/02/28 03:49:54;;;;;;;10.83;5.27;;;;;;;-3.67;100.00;96785.97;5057458;28;20482;-82
2023/02/28 03:52:24;;;;;;;9.20;4.70;;;;;;;-3.69;100.00;96787.75;5035488;28;20456;-82
2023/02/28 03:54:54;;;;;;;11.60;5.10;;;;;;;-3.67;100.00;96791.94;5033635;28;20471;-82
2023/02/28 03:57:43;;;;;;;12.37;5.53;;;;;;;-3.68;100.00;96789.44;4973859;28;20487;-82
2023/02/28 04:00:17;;;;;;;8.43;4.67;;;;;;;-3.63;100.00;96790.91;4930217;28;20455;-82
2023/02/28 04:02:45;;;;;;;11.10;5.30;;;;;;;-3.63;100.00;96792.66;4930401;28;20458;-82
2023/02/28 04:05:10;;;;;;;9.30;5.10;;;;;;;-3.63;100.00;96798.63;4946695;28;20455;-82
2023/02/28 04:07:36;;;;;;;9.37;5.50;;;;;;;-3.63;100.00;96797.81;4942948;28;20478;-82
2023/02/28 04:10:04;;;;;;;11.30;5.73;;;;;;;-3.70;100.00;96797.19;4934117;28;20033;-82
2023/02/28 04:12:30;;;;;;;10.77;5.60;;;;;;;-3.70;100.00;96802.34;4930488;28;20467;-82
2023/02/28 04:14:55;;;;;;;11.10;5.47;;;;;;;-3.67;100.00;96806.53;4949236;28;22098;-82
2023/02/28 04:17:21;;;;;;;9.27;5.50;;;;;;;-3.64;100.00;96804.69;4931733;28;20037;-82
2023/02/28 04:19:47;;;;;;;8.57;5.47;;;;;;;-3.62;100.00;96813.19;4922817;28;20033;-80
2023/02/28 04:22:13;;;;;;;12.03;5.73;;;;;;;-3.61;100.00;96807.13;4929665;28;20040;-81
2023/02/28 04:24:41;;;;;;;12.43;6.23;;;;;;;-3.16;100.00;96808.78;4947949;28;20037;-82
2023/02/28 04:27:08;;;;;;;9.63;5.37;;;;;;;-3.49;100.00;96805.81;5059529;28;21245;-83
2023/02/28 04:29:34;;;;;;;9.20;5.33;;;;;;;-3.54;100.00;96804.34;5068616;28;20463;-83
2023/02/28 04:32:01;;;;;;;12.37;5.57;;;;;;;-3.49;100.00;96805.81;5058614;28;20443;-83
2023/02/28 04:34:28;;;;;;;9.00;4.93;;;;;;;-3.49;100.00;96794.69;5062131;28;20029;-83
2023/02/28 04:36:55;;;;;;;12.30;5.00;;;;;;;-3.50;100.00;96800.75;5067460;28;20443;-83
2023/02/28 04:39:22;;;;;;;9.23;5.10;;;;;;;-3.52;100.00;96805.97;5050248;28;20710;-83
2023/02/28 04:41:55;;;;;;;9.37;5.27;;;;;;;-3.53;100.00;96806.84;5051253;28;20459;-82
2023/02/28 04:44:22;;;;;;;8.13;4.97;;;;;;;-3.54;100.00;96807.72;5050223;28;20475;-82
2023/02/28 04:46:48;;;;;;;12.33;6.03;;;;;;;-3.56;100.00;96800.06;5051453;28;20040;-82
2023/02/28 04:49:15;;;;;;;9.73;5.63;;;;;;;-3.53;100.00;96808.56;5055474;28;21012;-82
2023/02/28 04:51:41;;;;;;;10.43;5.27;;;;;;;-3.46;100.00;96804.84;5074981;28;21035;-82
2023/02/28 04:54:08;;;;;;;12.00;6.50;;;;;;;-3.42;100.00;96802.13;5051618;28;20593;-82
2023/02/28 04:56:34;;;;;;;9.90;6.23;;;;;;;-3.47;100.00;96805.75;5046096;28;20896;-82
2023/02/28 04:58:59;;;;;;;10.27;5.90;;;;;;;-3.51;100.00;96805.06;5052862;28;20491;-82
2023/02/28 05:01:34;;;;;;;11.33;6.00;;;;;;;-3.52;100.00;96808.53;5050926;28;20037;-83
2023/02/28 05:04:03;;;;;;;12.37;5.73;;;;;;;-3.50;100.00;96816.16;5085289;28;20418;-82
2023/02/28 05:06:31;;;;;;;13.53;6.77;;;;;;;-3.54;100.00;96819.75;5066449;28;20464;-82
2023/02/28 05:09:01;;;;;;;11.27;6.50;;;;;;;-3.50;100.00;96818.75;5050521;28;20462;-82
2023/02/28 05:11:33;;;;;;;9.50;5.43;;;;;;;-3.51;100.00;96817.91;5063193;28;21045;-82
2023/02/28 05:13:59;;;;;;;11.07;6.10;;;;;;;-3.48;100.00;96816.97;5032522;28;20478;-82
2023/02/28 05:16:25;;;;;;;11.93;6.53;;;;;;;-3.48;100.00;96812.66;5046014;28;20464;-82
2023/02/28 05:18:50;;;;;;;10.33;6.00;;;;;;;-3.45;100.00;96822.81;5050496;28;20390;-83
2023/02/28 05:21:38;;;;;;;10.80;5.80;;;;;;;-3.45;100.00;96817.66;5043526;28;20177;-82
2023/02/28 05:24:10;;;;;;;11.80;6.50;;;;;;;-3.37;100.00;96810.47;5063105;28;20091;-84
2023/02/28 05:26:40;;;;;;;12.03;5.57;;;;;;;-3.43;100.00;96807.31;5031873;28;20479;-82
2023/02/28 05:29:06;;;;;;;12.23;6.40;;;;;;;-3.46;100.00;96804.84;5034044;28;20477;-82
2023/02/28 05:31:41;;;;;;;9.27;6.00;;;;;;;-3.45;100.00;96811.69;5063761;28;20471;-82
2023/02/28 05:34:07;;;;;;;11.80;5.77;;;;;;;-3.43;100.00;96809.88;5079982;28;20075;-82
2023/02/28 05:36:33;;;;;;;11.10;6.80;;;;;;;-3.49;100.00;96810.94;5050020;28;20451;-84
2023/02/28 05:39:00;;;;;;;11.10;6.40;;;;;;;-3.42;100.00;96811.56;5067068;28;20425;-84
2023/02/28 05:41:25;;;;;;;14.33;6.57;;;;;;;-3.47;100.00;96814.31;5050392;28;20511;-83
2023/02/28 05:43:51;;;;;;;13.20;6.37;;;;;;;-3.44;100.00;96813.38;5049620;28;20850;-83
2023/02/28 05:46:17;;;;;;;12.40;7.23;;;;;;;-3.49;100.00;96820.41;5049944;28;20364;-85
2023/02/28 05:48:46;;;;;;;12.30;6.43;;;;;;;-3.48;100.00;96815.22;5046592;28;20502;-84
2023/02/28 05:51:12;;;;;;;12.13;6.53;;;;;;;-3.51;100.00;96819.66;5050181;28;20036;-83
2023/02/28 05:53:38;;;;;;;12.17;6.97;;;;;;;-3.53;100.00;96811.13;5062336;28;20460;-84
2023/02/28 05:56:04;;;;;;;16.80;6.93;;;;;;;-3.47;100.00;96818.63;5054373;28;20071;-83
2023/02/28 05:58:30;;;;;;;12.53;7.10;;;;;;;-3.37;100.00;96819.94;5047669;28;20036;-85
2023/02/28 06:01:01;;;;;;;12.23;6.47;;;;;;;-3.54;100.00;96819.75;5063061;28;20514;-84
2023/02/28 06:03:27;;;;;;;13.13;6.93;;;;;;;-3.44;100.00;96815.94;5064153;28;20471;-84
2023/02/28 06:05:53;;;;;;;11.83;6.80;;;;;;;-3.41;100.00;96816.66;5044292;28;20459;-84
2023/02/28 06:08:19;;;;;;;13.70;6.77;;;;;;;-3.51;100.00;96824.78;5046383;28;20428;-85
2023/02/28 06:10:46;;;;;;;11.57;6.63;;;;;;;-3.57;100.00;96823.28;5058012;28;20474;-84
2023/02/28 06:13:13;;;;;;;12.77;6.77;;;;;;;-3.53;100.00;96829.13;5050628;28;20452;-84
2023/02/28 06:15:39;;;;;;;13.63;7.00;;;;;;;-3.48;100.00;96829.81;5043912;28;20504;-84
2023/02/28 06:18:04;;;;;;;13.23;7.37;;;;;;;-3.57;100.00;96829.25;5048463;28;20900;-83
2023/02/28 06:20:30;;;;;;;12.43;6.80;;;;;;;-3.60;100.00;96839.66;5056760;28;20556;-84
2023/02/28 06:22:58;;;;;;;12.43;7.10;;;;;;;-3.70;100.00;96838.31;5045938;28;20091;-84
2023/02/28 06:25:25;;;;;;;10.50;6.67;;;;;;;-3.62;100.00;96835.44;5056215;28;20479;-84
2023/02/28 06:27:50;;;;;;;12.77;8.07;;;;;;;-3.70;100.00;96840.06;5049947;28;21133;-84
2023/02/28 06:30:16;;;;;;;13.80;8.37;;;;;;;-3.83;100.00;96849.94;5049044;28;20518;-84
2023/02/28 06:32:42;;;;;;;14.93;8.47;;;;;;;-3.65;100.00;96849.28;5049124;28;20065;-84
2023/02/28 06:35:08;;;;;;;13.83;8.23;;;;;;;-3.72;100.00;96849.53;5048528;28;20514;-84
2023/02/28 06:37:34;;;;;;;14.70;8.67;;;;;;;-3.78;100.00;96845.50;5070422;28;20040;-83
2023/02/28 06:39:59;;;;;;;16.53;8.00;;;;;;;-3.66;100.00;96845.00;5051405;28;20029;-83
2023/02/28 06:42:28;;;;;;;17.73;7.67;;;;;;;-3.68;100.00;96846.00;5048935;28;20033;-83
2023/02/28 06:44:55;;;;;;;14.17;7.83;;;;;;;-3.67;100.00;96848.50;5050760;28;20037;-83
2023/02/28 06:47:22;;;;;;;15.00;8.07;;;;;;;-3.63;100.00;96852.63;5049084;28;20462;-83
2023/02/28 06:49:47;;;;;;;14.67;8.03;;;;;;;-3.59;100.00;96855.91;5048906;28;20774;-83
2023/02/28 06:52:37;;;;;;;15.13;8.73;;;;;;;-3.47;100.00;96854.63;5049937;28;20450;-84
2023/02/28 06:55:06;;;;;;;18.13;10.30;;;;;;;-3.47;100.00;96854.63;5042340;28;20033;-83
2023/02/28 06:57:34;;;;;;;15.63;9.47;;;;;;;-3.18;100.00;96848.34;5047002;28;20486;-84
2023/02/28 07:00:02;;;;;;;13.20;8.03;;;;;;;-3.12;100.00;96856.66;5048971;28;20458;-83
2023/02/28 07:02:28;;;;;;;13.17;7.80;;;;;;;-2.82;100.00;96843.44;5064734;28;20458;-82
2023/02/28 07:04:57;;;;;;;15.30;9.70;;;;;;;-2.64;100.00;96847.84;5051337;28;21393;-83
2023/02/28 07:07:23;;;;;;;14.83;8.13;;;;;;;-2.33;100.00;96849.13;5049057;28;20478;-83
2023/02/28 07:09:49;;;;;;;15.13;8.60;;;;;;;-2.33;100.00;96845.72;5036639;28;20138;-83
2023/02/28 07:12:40;;;;;;;14.40;8.30;;;;;;;-2.25;100.00;96848.81;5082970;28;21016;-83
2023/02/28 07:15:06;;;;;;;19.27;8.67;;;;;;;-2.18;100.00;96850.22;5052973;28;20086;-83
2023/02/28 07:17:32;;;;;;;33.73;15.63;;;;;;;-1.88;100.00;96855.75;5041016;28;20516;-83
2023/02/28 07:19:57;;;;;;;16.57;8.63;;;;;;;-1.68;100.00;96855.75;5069354;28;20463;-83
2023/02/28 07:22:24;;;;;;;15.10;9.10;;;;;;;-1.92;100.00;96867.97;4977290;28;20040;-83
2023/02/28 07:24:50;;;;;;;13.03;8.07;;;;;;;-2.42;100.00;96876.13;4964160;28;20485;-83
2023/02/28 07:27:25;;;;;;;14.70;8.03;;;;;;;-2.19;100.00;96876.88;4949356;28;21951;-83
2023/02/28 07:29:52;;;;;;;15.37;8.73;;;;;;;-2.27;100.00;96882.38;4934955;28;20040;-83
2023/02/28 07:32:19;;;;;;;12.70;7.10;;;;;;;-2.23;100.00;96881.34;5000912;28;21007;-84
2023/02/28 07:34:45;;;;;;;14.37;8.03;;;;;;;-2.23;100.00;96886.50;5071942;28;20813;-83
2023/02/28 07:37:11;;;;;;;15.00;7.73;;;;;;;-1.63;100.00;96876.16;5052504;28;20459;-84
2023/02/28 07:39:36;;;;;;;13.23;7.80;;;;;;;-0.99;100.00;96864.59;5036902;28;20435;-84
2023/02/28 07:42:09;;;;;;;13.07;7.60;;;;;;;-1.16;100.00;96856.81;5068233;28;20037;-83
2023/02/28 07:44:35;;;;;;;13.43;7.47;;;;;;;-0.60;100.00;96851.50;5068175;28;20029;-84
2023/02/28 07:47:00;;;;;;;13.00;6.93;;;;;;;-0.68;100.00;96857.94;5056332;28;21075;-83
2023/02/28 07:49:26;;;;;;;12.10;7.07;;;;;;;-0.02;100.00;96856.31;5057784;28;20550;-84
2023/02/28 07:51:54;;;;;;;11.87;6.73;;;;;;;-0.78;100.00;96860.97;5053215;28;20055;-84
2023/02/28 07:54:19;;;;;;;12.93;7.77;;;;;;;0.53;100.00;96859.50;5052908;28;20028;-83
2023/02/28 07:56:45;;;;;;;13.27;7.57;;;;;;;0.20;100.00;96856.06;5098878;28;20451;-84
2023/02/28 07:59:15;;;;;;;14.17;8.33;;;;;;;0.33;100.00;96857.97;5069865;28;20075;-84
2023/02/28 08:01:41;;;;;;;13.43;6.97;;;;;;;1.12;100.00;96853.63;5052724;28;20452;-84
2023/02/28 08:04:22;;;;;;;13.27;7.23;;;;;;;0.53;100.00;96855.16;5054706;28;20557;-84
2023/02/28 08:07:13;;;;;;;13.77;7.37;;;;;;;0.68;100.00;96858.69;5077395;28;20040;-84
2023/02/28 08:09:40;;;;;;;11.97;6.70;;;;;;;1.33;100.00;96861.13;5049573;28;20458;-83
2023/02/28 08:12:07;;;;;;;10.97;6.63;;;;;;;0.61;100.00;96863.34;5050922;28;20451;-83
2023/02/28 08:14:33;;;;;;;12.23;6.70;;;;;;;2.22;100.00;96861.13;5049699;28;20919;-83
2023/02/28 08:16:59;;;;;;;11.27;6.87;;;;;;;2.08;100.00;96857.59;5040482;28;20455;-84
2023/02/28 08:19:27;;;;;;;12.93;7.80;;;;;;;1.85;100.00;96855.53;5049647;28;21090;-84
2023/02/28 08:21:52;;;;;;;13.30;7.33;;;;;;;1.86;100.00;96857.19;5052562;28;20039;-84
2023/02/28 08:24:18;;;;;;;14.07;7.83;;;;;;;1.96;100.00;96853.13;5067357;28;20542;-84
2023/02/28 08:26:44;;;;;;;10.93;6.50;;;;;;;1.26;100.00;96855.44;5067362;28;20040;-85
2023/02/28 08:29:10;;;;;;;14.20;6.87;;;;;;;1.40;100.00;96862.44;5051084;28;20036;-84
2023/02/28 08:31:35;;;;;;;14.30;7.10;;;;;;;1.52;100.00;96861.75;5050146;28;20033;-83
2023/02/28 08:34:06;;;;;;;12.87;7.10;;;;;;;1.34;100.00;96866.22;5086862;28;20104;-84
2023/02/28 08:36:32;;;;;;;11.50;7.07;;;;;;;0.78;100.00;96864.19;5052963;28;20039;-84
2023/02/28 08:38:59;;;;;;;12.50;7.20;;;;;;;-0.22;100.00;96863.44;5042999;28;20464;-83
2023/02/28 08:41:25;;;;;;;13.33;7.17;;;;;;;1.18;100.00;96848.13;5066521;28;20037;-83
2023/02/28 08:43:51;;;;;;;11.50;7.67;;;;;;;1.05;100.00;96848.91;5050919;28;20472;-83
2023/02/28 08:46:17;;;;;;;13.77;7.53;;;;;;;1.04;100.00;96852.38;5052085;28;20521;-84
2023/02/28 08:48:43;;;;;;;11.40;6.83;;;;;;;1.02;100.00;96859.44;5048837;28;20802;-84
2023/02/28 08:51:21;;;;;;;11.23;6.80;;;;;;;1.09;100.00;96847.78;5048628;28;20456;-84
2023/02/28 08:53:49;;;;;;;10.93;6.40;;;;;;;0.34;100.00;96865.66;5061385;28;20459;-84
2023/02/28 08:56:16;;;;;;;13.73;9.43;;;;;;;0.57;100.00;96855.81;5063301;28;20470;-84
2023/02/28 08:58:43;;;;;;;14.03;8.20;;;;;;;0.45;100.00;96857.34;5050625;28;21055;-84
2023/02/28 09:01:22;;;;;;;11.60;7.40;;;;;;;0.84;100.00;96862.13;5050609;28;20459;-84
2023/02/28 09:03:49;;;;;;;14.03;8.00;;;;;;;0.96;100.00;96852.81;5043477;28;20930;-84
2023/02/28 09:06:17;;;;;;;13.93;7.40;;;;;;;0.37;100.00;96864.66;5049024;28;20439;-84
2023/02/28 09:08:43;;;;;;;15.23;7.93;;;;;;;0.67;100.00;96865.63;5061431;28;20451;-84
2023/02/28 09:11:20;;;;;;;13.27;7.70;;;;;;;0.56;100.00;96865.34;5052771;28;20455;-83
2023/02/28 09:13:46;;;;;;;14.10;7.70;;;;;;;1.59;100.00;96857.88;5034740;28;20037;-84
2023/02/28 09:16:15;;;;;;;12.77;6.27;;;;;;;2.12;100.00;96859.06;5046814;28;20456;-84
2023/02/28 09:18:40;;;;;;;12.90;7.80;;;;;;;1.85;100.00;96855.53;5050285;28;21004;-84
2023/02/28 09:21:13;;;;;;;12.43;7.20;;;;;;;1.19;100.00;96864.50;5050777;28;20462;-84
2023/02/28 09:23:39;;;;;;;11.77;6.93;;;;;;;1.23;100.00;96865.97;5052414;28;20037;-84
2023/02/28 09:26:05;;;;;;;13.47;7.83;;;;;;;1.83;100.00;96865.16;5050832;28;20467;-85
2023/02/28 09:28:31;;;;;;;10.90;6.53;;;;;;;0.87;100.00;96864.53;5052520;28;20033;-84
2023/02/28 09:30:58;;;;;;;13.37;8.20;;;;;;;1.33;100.00;96868.91;5051221;28;21011;-84
2023/02/28 09:33:25;;;;;;;15.07;9.03;;;;;;;0.57;100.00;96866.19;5067250;28;20029;-84
2023/02/28 09:35:57;;;;;;;15.30;8.23;;;;;;;1.36;100.00;96866.97;5051993;28;20604;-84
2023/02/28 09:38:24;;;;;;;13.43;7.93;;;;;;;1.77;100.00;96863.72;5057298;28;20455;-84
2023/02/28 09:41:02;;;;;;;12.27;7.30;;;;;;;1.62;100.00;96867.25;5055950;28;21082;-83
2023/02/28 09:43:35;;;;;;;11.50;7.47;;;;;;;1.75;100.00;96869.97;5070701;28;20470;-84
2023/02/28 09:46:20;;;;;;;12.43;6.95;;;;;;;1.47;100.00;96868.09;5050572;28;20821;-84
2023/02/28 09:48:48;;;;;;;12.10;7.30;;;;;;;2.26;100.00;96857.41;5045297;28;20037;-84
2023/02/28 09:51:27;;;;;;;13.47;7.57;;;;;;;2.56;100.00;96855.53;5052365;28;20563;-84
2023/02/28 09:53:56;;;;;;;10.80;6.70;;;;;;;1.87;100.00;96864.03;5056694;28;20451;-84
2023/02/28 09:56:30;;;;;;;12.57;7.83;;;;;;;2.31;100.00;96865.72;5080087;28;20460;-84
2023/02/28 09:59:18;;;;;;;12.60;7.25;;;;;;;1.61;100.00;96875.91;5069092;28;20463;-85
2023/02/28 10:02:11;;;;;;;14.07;7.23;;;;;;;0.78;100.00;96871.97;5057285;28;20069;-85
2023/02/28 10:04:55;;;;;;;13.60;7.70;;;;;;;1.21;100.00;96883.38;5070526;28;20998;-84
2023/02/28 10:07:50;;;;;;;11.23;7.43;;;;;;;1.01;100.00;96879.31;5050364;28;20440;-85
2023/02/28 10:10:35;;;;;;;13.40;7.50;;;;;;;1.17;100.00;96882.72;5049743;28;20553;-85
2023/02/28 10:13:05;;;;;;;12.83;7.83;;;;;;;1.36;100.00;96877.31;5081885;28;20471;-84
2023/02/28 10:15:35;;;;;;;14.98;8.73;;;;;;;0.59;100.00;96885.88;5073596;28;20478;-84
2023/02/28 10:18:06;;;;;;;12.83;7.33;;;;;;;1.18;100.00;96886.16;5051605;28;20068;-85
2023/02/28 10:20:37;;;;;;;13.17;7.43;;;;;;;1.03;100.00;96893.00;5066099;28;20431;-85
2023/02/28 10:23:21;;;;;;;12.60;7.47;;;;;;;0.95;100.00;96884.81;5049901;28;20837;-85
2023/02/28 10:25:55;;;;;;;13.53;7.70;;;;;;;1.62;100.00;96887.97;5050221;28;20489;-84
2023/02/28 10:28:21;;;;;;;13.10;7.43;;;;;;;1.74;100.00;96896.78;5051801;28;20463;-84
2023/02/28 10:30:52;;;;;;;12.13;7.90;;;;;;;1.20;100.00;96889.47;5047106;28;20830;-85
2023/02/28 10:33:31;;;;;;;17.60;8.27;;;;;;;0.98;100.00;96899.38;5046344;28;20032;-84
2023/02/28 10:35:57;;;;;;;13.70;8.40;;;;;;;2.03;100.00;96889.91;5050749;28;20470;-85
2023/02/28 10:38:35;;;;;;;12.80;7.27;;;;;;;2.18;100.00;96885.56;5072791;28;21331;-85
2023/02/28 10:41:08;;;;;;;12.37;7.60;;;;;;;1.69;100.00;96893.66;5070419;28;20439;-85
2023/02/28 10:43:34;;;;;;;12.27;6.78;;;;;;;1.85;100.00;96884.06;5055746;28;20466;-85
2023/02/28 10:46:09;;;;;;;14.40;7.50;;;;;;;0.89;100.00;96903.28;5052383;28;20039;-84
2023/02/28 10:48:43;;;;;;;13.23;7.63;;;;;;;2.30;100.00;96892.63;5072173;28;20529;-85
2023/02/28 10:51:14;;;;;;;11.13;7.47;;;;;;;2.03;100.00;96895.94;5034235;28;20554;-85
2023/02/28 10:53:43;;;;;;;15.37;8.40;;;;;;;1.87;100.00;96889.97;5051171;28;20454;-85
2023/02/28 10:56:09;;;;;;;11.63;7.10;;;;;;;2.38;100.00;96903.38;5067189;28;20459;-85
2023/02/28 10:58:59;;;;;;;13.20;8.47;;;;;;;2.02;100.00;96891.69;5065481;28;20539;-85
2023/02/28 11:01:48;;;;;;;11.87;7.23;;;;;;;3.46;100.00;96880.16;5049543;28;20037;-85
2023/02/28 11:04:28;;;;;;;13.30;7.47;;;;;;;2.86;100.00;96888.31;5082936;28;21223;-85
2023/02/28 11:07:00;;;;;;;11.73;7.20;;;;;;;3.82;100.00;96878.66;5066501;28;20478;-84
2023/02/28 11:09:38;;;;;;;13.87;7.67;;;;;;;4.33;100.00;96873.50;5050152;28;20025;-85
2023/02/28 11:12:21;;;;;;;12.50;7.47;;;;;;;3.91;100.00;96872.84;5045086;28;20108;-84
2023/02/28 11:14:56;;;;;;;12.60;8.43;;;;;;;4.74;100.00;96864.59;5046667;28;20056;-85
2023/02/28 11:17:25;;;;;;;11.20;6.83;;;;;;;4.56;100.00;96860.66;5074070;28;20036;-84
2023/02/28 11:19:55;;;;;;;13.63;7.57;;;;;;;4.92;100.00;96855.47;5086918;28;20033;-84
2023/02/28 11:22:24;;;;;;;11.33;6.77;;;;;;;4.26;100.00;96856.66;5070833;28;20029;-84
2023/02/28 11:24:57;;;;;;;15.83;8.03;;;;;;;4.71;100.00;96862.19;5033487;28;20037;-85
2023/02/28 11:27:33;;;;;;;13.95;7.75;;;;;;;4.62;100.00;96857.63;5066290;28;20033;-85
2023/02/28 11:30:00;;;;;;;11.23;8.17;;;;;;;4.79;100.00;96862.47;5070190;28;20033;-85
2023/02/28 11:32:31;;;;;;;11.93;7.33;;;;;;;5.17;100.00;96861.53;5040800;28;20120;-85
2023/02/28 11:35:09;;;;;;;13.17;7.77;;;;;;;4.63;100.00;96859.31;5054439;28;20406;-85
2023/02/28 11:37:35;;;;;;;12.63;6.97;;;;;;;4.92;100.00;96850.25;5051932;28;20148;-86
2023/02/28 11:40:26;;;;;;;11.20;6.60;;;;;;;4.67;100.00;96845.13;5053707;28;20115;-85